Time,TemperatureF,DewpointF,PressureIn,WindDirection,WindDirectionDegrees,WindSpeedMPH,WindSpeedGustMPH,Humidity,HourlyPrecipIn,Conditions,Clouds,dailyrainin,SoftwareType,DateUTC
2013-08-01 00:03:00,81.0,-99.9,29.98,SSE,149,8.0,10.0,-999,-99.99,,,-99.99,,2013-08-01 05:03:00,
2013-08-01 00:13:00,81.0,-99.9,29.98,SE,146,8.0,9.0,-999,-99.99,,,-99.99,,2013-08-01 05:13:00,
2013-08-01 00:33:00,81.0,-99.9,29.98,SE,146,8.0,10.0,-999,-99.99,,,-99.99,,2013-08-01 05:33:00,
2013-08-01 00:43:00,81.0,-99.9,29.98,SSE,147,9.0,10.0,-999,-99.99,,,-99.99,,2013-08-01 05:43:00,
2013-08-01 00:53:00,81.0,-99.9,29.98,SSE,149,8.0,9.0,-999,-99.99,,,-99.99,,2013-08-01 05:53:00,
2013-08-01 01:02:00,81.0,-99.9,29.99,SE,144,8.0,9.0,-999,-99.99,,,-99.99,,2013-08-01 06:02:00,
2013-08-01 01:13:00,81.0,-99.9,29.99,SE,144,8.0,9.0,-999,-99.99,,,-99.99,,2013-08-01 06:13:00,
2013-08-01 01:33:00,80.0,-99.9,29.98,SSE,154,9.0,10.0,-999,-99.99,,,-99.99,,2013-08-01 06:33:00,
2013-08-01 01:43:00,80.0,-99.9,29.98,SSE,157,10.0,11.0,-999,-99.99,,,-99.99,,2013-08-01 06:43:00,
2013-08-01 01:53:00,80.0,-99.9,29.98,SSE,154,9.0,11.0,-999,-99.99,,,-99.99,,2013-08-01 06:53:00,
2013-08-01 02:03:00,80.0,-99.9,29.98,SSE,156,9.0,10.0,-999,-99.99,,,-99.99,,2013-08-01 07:03:00,
2013-08-01 02:12:00,80.0,-99.9,29.98,SSE,162,10.0,11.0,-999,-99.99,,,-99.99,,2013-08-01 07:12:00,
2013-08-01 02:33:00,80.0,-99.9,29.98,SSE,165,8.0,9.0,-999,-99.99,,,-99.99,,2013-08-01 07:33:00,
2013-08-01 02:43:00,80.0,-99.9,29.98,SSE,161,7.0,9.0,-999,-99.99,,,-99.99,,2013-08-01 07:43:00,
2013-08-01 02:56:00,80.0,-99.9,29.98,SSE,153,7.0,8.0,-999,-99.99,,,-99.99,,2013-08-01 07:56:00,
2013-08-01 03:09:00,80.0,-99.9,29.98,SSE,154,8.0,9.0,-999,-99.99,,,-99.99,,2013-08-01 08:09:00,
2013-08-01 03:18:00,80.0,-99.9,29.98,SSE,158,8.0,9.0,-999,-99.99,,,-99.99,,2013-08-01 08:18:00,
2013-08-01 03:42:00,81.0,-99.9,29.97,SSE,166,10.0,12.0,-999,-99.99,,,-99.99,,2013-08-01 08:42:00,
2013-08-01 03:48:00,80.0,-99.9,29.97,SSE,167,11.0,12.0,-999,-99.99,,,-99.99,,2013-08-01 08:48:00,
2013-08-01 04:12:00,80.0,-99.9,29.97,SSE,168,10.0,11.0,-999,-99.99,,,-99.99,,2013-08-01 09:12:00,
2013-08-01 04:18:00,80.0,-99.9,29.96,South,178,11.0,13.0,-999,-99.99,,,-99.99,,2013-08-01 09:18:00,
2013-08-01 04:50:00,80.0,-99.9,29.97,South,172,10.0,12.0,-999,-99.99,,,-99.99,,2013-08-01 09:50:00,
2013-08-01 05:49:00,80.0,-99.9,29.96,South,177,13.0,15.0,-999,-99.99,,,-99.99,,2013-08-01 10:49:00,
2013-08-01 06:02:00,80.0,-99.9,29.96,South,177,13.0,16.0,-999,-99.99,,,-99.99,,2013-08-01 11:02:00,
2013-08-01 06:17:00,80.0,-99.9,29.96,South,181,12.0,14.0,-999,-99.99,,,-99.99,,2013-08-01 11:17:00,
2013-08-01 06:48:00,80.0,-99.9,29.96,South,185,10.0,12.0,-999,-99.99,,,-99.99,,2013-08-01 11:48:00,
2013-08-01 07:12:00,80.0,-99.9,29.98,South,189,9.0,10.0,-999,-99.99,,,-99.99,,2013-08-01 12:12:00,
2013-08-01 07:18:00,80.0,-99.9,29.98,South,190,8.0,9.0,-999,-99.99,,,-99.99,,2013-08-01 12:18:00,
2013-08-01 07:41:00,80.0,-99.9,29.99,SSW,203,4.0,5.0,-999,-99.99,,,-99.99,,2013-08-01 12:41:00,
2013-08-01 07:54:00,80.0,-99.9,29.99,SSW,211,3.0,5.0,-999,-99.99,,,-99.99,,2013-08-01 12:54:00,
2013-08-01 08:24:00,80.0,-99.9,29.99,South,189,3.0,4.0,-999,-99.99,,,-99.99,,2013-08-01 13:24:00,
2013-08-01 08:48:00,81.0,-99.9,30.00,South,187,6.0,7.0,-999,-99.99,,,-99.99,,2013-08-01 13:48:00,
2013-08-01 08:57:00,81.0,-99.9,30.00,South,182,6.0,7.0,-999,-99.99,,,-99.99,,2013-08-01 13:57:00,
2013-08-01 09:11:00,81.0,-99.9,29.99,South,180,6.0,8.0,-999,-99.99,,,-99.99,,2013-08-01 14:11:00,
2013-08-01 10:19:00,80.0,-99.9,29.99,SE,139,7.0,9.0,-999,-99.99,,,-99.99,,2013-08-01 15:19:00,
2013-08-01 10:40:00,81.0,-99.9,30.00,SE,127,8.0,8.0,-999,-99.99,,,-99.99,,2013-08-01 15:40:00,
2013-08-01 10:55:00,81.0,-99.9,30.00,ESE,122,8.0,9.0,-999,-99.99,,,-99.99,,2013-08-01 15:55:00,
2013-08-01 11:03:00,81.0,-99.9,30.00,ESE,115,7.0,8.0,-999,-99.99,,,-99.99,,2013-08-01 16:03:00,
2013-08-01 11:11:00,81.0,-99.9,30.00,SE,124,8.0,9.0,-999,-99.99,,,-99.99,,2013-08-01 16:11:00,
2013-08-01 11:53:00,81.0,-99.9,30.00,ESE,110,7.0,9.0,-999,-99.99,,,-99.99,,2013-08-01 16:53:00,
2013-08-01 12:00:00,81.0,-99.9,30.00,ESE,104,8.0,9.0,-999,-99.99,,,-99.99,,2013-08-01 17:00:00,
2013-08-01 12:20:00,81.0,-99.9,30.00,East,100,9.0,10.0,-999,-99.99,,,-99.99,,2013-08-01 17:20:00,
2013-08-01 13:12:00,81.0,-99.9,29.99,ESE,106,8.0,10.0,-999,-99.99,,,-99.99,,2013-08-01 18:12:00,
2013-08-01 13:19:00,81.0,-99.9,29.99,ESE,109,10.0,11.0,-999,-99.99,,,-99.99,,2013-08-01 18:19:00,
2013-08-01 13:50:00,81.0,-99.9,29.98,ESE,114,11.0,12.0,-999,-99.99,,,-99.99,,2013-08-01 18:50:00,
2013-08-01 13:56:00,81.0,-99.9,29.98,ESE,111,10.0,11.0,-999,-99.99,,,-99.99,,2013-08-01 18:56:00,
2013-08-01 14:02:00,81.0,-99.9,29.98,ESE,104,11.0,11.0,-999,-99.99,,,-99.99,,2013-08-01 19:02:00,
2013-08-01 14:12:00,81.0,-99.9,29.97,ESE,107,11.0,12.0,-999,-99.99,,,-99.99,,2013-08-01 19:12:00,
2013-08-01 14:18:00,81.0,-99.9,29.98,East,100,11.0,11.0,-999,-99.99,,,-99.99,,2013-08-01 19:18:00,
2013-08-01 14:25:00,81.0,-99.9,29.98,East,94,9.0,11.0,-999,-99.99,,,-99.99,,2013-08-01 19:25:00,
2013-08-01 14:45:00,81.0,-99.9,29.97,ESE,107,12.0,13.0,-999,-99.99,,,-99.99,,2013-08-01 19:45:00,
2013-08-01 15:02:00,81.0,-99.9,29.97,ESE,107,11.0,12.0,-999,-99.99,,,-99.99,,2013-08-01 20:02:00,
2013-08-01 15:42:00,82.0,-99.9,29.96,ESE,114,12.0,14.0,-999,-99.99,,,-99.99,,2013-08-01 20:42:00,
2013-08-01 15:52:00,82.0,-99.9,29.95,ESE,113,12.0,13.0,-999,-99.99,,,-99.99,,2013-08-01 20:52:00,
2013-08-01 16:14:00,82.0,-99.9,29.95,East,96,12.0,13.0,-999,-99.99,,,-99.99,,2013-08-01 21:14:00,
2013-08-01 16:35:00,82.0,-99.9,29.94,East,101,11.0,12.0,-999,-99.99,,,-99.99,,2013-08-01 21:35:00,
2013-08-01 17:18:00,82.0,-99.9,29.93,ESE,109,11.0,13.0,-999,-99.99,,,-99.99,,2013-08-01 22:18:00,
2013-08-01 17:49:00,82.0,-99.9,29.93,ESE,111,12.0,13.0,-999,-99.99,,,-99.99,,2013-08-01 22:49:00,
2013-08-01 18:12:00,83.0,-99.9,29.92,ESE,112,12.0,15.0,-999,-99.99,,,-99.99,,2013-08-01 23:12:00,
2013-08-01 18:33:00,82.0,-99.9,29.91,ESE,111,12.0,13.0,-999,-99.99,,,-99.99,,2013-08-01 23:33:00,
2013-08-01 18:53:00,82.0,-99.9,29.91,ESE,112,12.0,13.0,-999,-99.99,,,-99.99,,2013-08-01 23:53:00,
2013-08-01 19:03:00,82.0,-99.9,29.91,ESE,110,12.0,13.0,-999,-99.99,,,-99.99,,2013-08-02 00:03:00,
2013-08-01 19:09:00,82.0,-99.9,29.91,ESE,111,12.0,13.0,-999,-99.99,,,-99.99,,2013-08-02 00:09:00,
2013-08-01 19:19:00,82.0,-99.9,29.91,ESE,109,13.0,14.0,-999,-99.99,,,-99.99,,2013-08-02 00:19:00,
2013-08-01 19:41:00,82.0,-99.9,29.91,ESE,104,13.0,14.0,-999,-99.99,,,-99.99,,2013-08-02 00:41:00,
2013-08-01 19:53:00,82.0,-99.9,29.91,ESE,107,13.0,14.0,-999,-99.99,,,-99.99,,2013-08-02 00:53:00,
2013-08-01 20:02:00,82.0,-99.9,29.91,ESE,107,13.0,15.0,-999,-99.99,,,-99.99,,2013-08-02 01:02:00,
2013-08-01 20:18:00,82.0,-99.9,29.91,ESE,106,13.0,15.0,-999,-99.99,,,-99.99,,2013-08-02 01:18:00,
2013-08-01 20:42:00,82.0,-99.9,29.91,ESE,108,12.0,14.0,-999,-99.99,,,-99.99,,2013-08-02 01:42:00,
2013-08-01 21:09:00,82.0,-99.9,29.92,ESE,116,13.0,15.0,-999,-99.99,,,-99.99,,2013-08-02 02:09:00,
2013-08-01 21:18:00,82.0,-99.9,29.92,ESE,120,13.0,14.0,-999,-99.99,,,-99.99,,2013-08-02 02:18:00,
2013-08-01 21:45:00,82.0,-99.9,29.92,ESE,117,12.0,13.0,-999,-99.99,,,-99.99,,2013-08-02 02:45:00,
2013-08-01 21:55:00,82.0,-99.9,29.92,ESE,118,11.0,13.0,-999,-99.99,,,-99.99,,2013-08-02 02:55:00,
2013-08-01 22:12:00,82.0,-99.9,29.92,SE,125,12.0,13.0,-999,-99.99,,,-99.99,,2013-08-02 03:12:00,
2013-08-01 22:41:00,82.0,-99.9,29.92,SE,131,11.0,12.0,-999,-99.99,,,-99.99,,2013-08-02 03:41:00,
2013-08-01 22:53:00,82.0,-99.9,29.92,SE,137,11.0,12.0,-999,-99.99,,,-99.99,,2013-08-02 03:53:00,
2013-08-01 23:01:00,82.0,-99.9,29.93,SE,144,10.0,12.0,-999,-99.99,,,-99.99,,2013-08-02 04:01:00,
2013-08-01 23:02:00,82.0,-99.9,29.93,SSE,150,9.0,11.0,-999,-99.99,,,-99.99,,2013-08-02 04:02:00,
2013-08-01 23:12:00,82.0,-99.9,29.94,SSE,148,9.0,11.0,-999,-99.99,,,-99.99,,2013-08-02 04:12:00,
2013-08-01 23:33:00,82.0,-99.9,29.94,SE,145,9.0,11.0,-999,-99.99,,,-99.99,,2013-08-02 04:33:00,
2013-08-01 23:43:00,81.0,-99.9,29.94,SSE,148,9.0,11.0,-999,-99.99,,,-99.99,,2013-08-02 04:43:00,
2013-08-01 23:53:00,81.0,-99.9,29.94,SSE,148,9.0,11.0,-999,-99.99,,,-99.99,,2013-08-02 04:53:00,